Time;durP1;ratioP1;P1;durP2;ratioP2;P2;SDS_P1;SDS_P2;PMS_P1;PMS_P2;Temp;Humidity;BMP_temperature;BMP_pressure;BME280_temperature;BME280_humidity;BME280_pressure;Samples;Min_cycle;Max_cycle;Signal;HPM_P1;HPM_P2
2020/12/26 00:01:31;;;;;;;1.13;0.50;;;2.10;92.70;;;;;;5113452;28;20051;-72
2020/12/26 00:03:57;;;;;;;1.05;0.57;;;2.10;92.60;;;;;;5113172;28;20043;-72
2020/12/26 00:06:23;;;;;;;1.27;0.70;;;2.10;92.70;;;;;;5113212;28;20032;-72
2020/12/26 00:08:51;;;;;;;1.15;0.50;;;2.10;92.60;;;;;;5094882;28;20028;-72
2020/12/26 00:11:18;;;;;;;0.75;0.57;;;2.20;92.60;;;;;;5113308;28;20102;-72
2020/12/26 00:13:46;;;;;;;1.00;0.55;;;2.10;92.60;;;;;;5113445;28;20524;-72
2020/12/26 00:16:13;;;;;;;0.45;0.30;;;2.20;92.60;;;;;;5094764;28;20429;-72
2020/12/26 00:18:40;;;;;;;1.60;0.50;;;2.20;92.60;;;;;;5112875;28;20409;-72
2020/12/26 00:21:08;;;;;;;1.83;0.47;;;2.20;92.60;;;;;;5113345;28;20043;-72
2020/12/26 00:23:35;;;;;;;0.88;0.57;;;2.20;92.60;;;;;;5113267;28;20070;-72
2020/12/26 00:26:01;;;;;;;0.50;0.50;;;2.30;92.60;;;;;;5113247;28;20334;-73
2020/12/26 00:28:27;;;;;;;1.15;0.57;;;2.30;92.60;;;;;;5095248;28;20035;-72
2020/12/26 00:30:53;;;;;;;0.85;0.50;;;2.30;92.60;;;;;;5112140;28;20035;-73
2020/12/26 00:33:18;;;;;;;0.57;0.40;;;2.30;92.60;;;;;;5112963;28;20044;-72
2020/12/26 00:35:44;;;;;;;0.82;0.52;;;2.20;92.60;;;;;;5112647;28;20067;-72
2020/12/26 00:38:10;;;;;;;1.25;0.70;;;2.30;92.60;;;;;;5112726;28;20031;-73
2020/12/26 00:40:36;;;;;;;1.58;0.88;;;2.30;92.60;;;;;;5112511;28;20449;-72
2020/12/26 00:43:01;;;;;;;0.82;0.60;;;2.40;92.60;;;;;;5095023;28;20039;-72
2020/12/26 00:45:27;;;;;;;0.90;0.70;;;2.40;92.60;;;;;;5112630;28;20051;-72
2020/12/26 00:47:53;;;;;;;1.58;0.47;;;2.40;92.50;;;;;;5112393;28;20181;-72
2020/12/26 00:50:18;;;;;;;0.63;0.52;;;2.40;92.60;;;;;;5112833;28;20035;-72
2020/12/26 00:52:44;;;;;;;0.43;0.40;;;2.40;92.50;;;;;;5112491;28;20043;-72
2020/12/26 00:55:10;;;;;;;0.73;0.70;;;2.40;92.50;;;;;;5094489;28;20497;-72
2020/12/26 00:57:36;;;;;;;0.95;0.60;;;2.40;92.50;;;;;;5112928;28;20477;-73
2020/12/26 01:00:04;;;;;;;0.82;0.60;;;2.50;92.60;;;;;;5112602;28;20110;-72
2020/12/26 01:02:30;;;;;;;0.63;0.50;;;2.50;92.50;;;;;;5112859;28;20123;-72
2020/12/26 01:04:56;;;;;;;0.73;0.50;;;2.50;92.50;;;;;;5094084;28;20044;-72
2020/12/26 01:07:21;;;;;;;1.40;0.85;;;2.50;92.50;;;;;;5112800;28;20036;-72
2020/12/26 01:09:47;;;;;;;0.90;0.50;;;2.60;92.50;;;;;;5112180;28;20040;-72
2020/12/26 01:12:13;;;;;;;1.40;0.65;;;2.70;92.50;;;;;;5112267;28;20067;-72
2020/12/26 01:14:42;;;;;;;0.50;0.50;;;2.60;92.50;;;;;;5112670;28;20650;-72
2020/12/26 01:17:08;;;;;;;1.02;0.60;;;2.70;92.50;;;;;;5112088;28;20046;-75
2020/12/26 01:19:34;;;;;;;1.25;0.68;;;2.70;92.50;;;;;;5094347;28;20043;-71
2020/12/26 01:21:59;;;;;;;0.65;0.50;;;2.60;92.40;;;;;;5112708;28;20024;-72
2020/12/26 01:24:25;;;;;;;0.80;0.60;;;2.70;92.50;;;;;;5112054;28;20450;-72
2020/12/26 01:26:51;;;;;;;0.80;0.43;;;2.70;92.40;;;;;;5093761;28;20063;-71
2020/12/26 01:29:18;;;;;;;0.95;0.70;;;2.70;92.40;;;;;;5111936;28;20063;-72
2020/12/26 01:31:49;;;;;;;1.17;0.68;;;2.70;92.40;;;;;;5112385;28;20047;-71
2020/12/26 01:34:14;;;;;;;0.77;0.65;;;2.70;92.40;;;;;;5093631;28;20078;-72
2020/12/26 01:36:40;;;;;;;1.33;0.70;;;2.70;92.40;;;;;;5093526;28;20063;-72
2020/12/26 01:39:06;;;;;;;0.50;0.50;;;2.80;92.40;;;;;;5111841;28;20124;-72
2020/12/26 01:41:31;;;;;;;0.63;0.50;;;2.80;92.40;;;;;;5111754;28;20114;-72
2020/12/26 01:44:01;;;;;;;0.82;0.60;;;2.80;92.40;;;;;;5113472;28;20039;-74
2020/12/26 01:46:29;;;;;;;1.05;0.52;;;2.80;92.40;;;;;;5115210;28;20052;-73
2020/12/26 01:48:56;;;;;;;1.30;0.70;;;2.80;92.40;;;;;;5115786;28;20043;-72
2020/12/26 01:51:23;;;;;;;0.70;0.70;;;2.90;92.40;;;;;;5097094;28;20035;-73
2020/12/26 01:53:50;;;;;;;0.88;0.50;;;2.90;92.40;;;;;;5115102;28;20046;-72
2020/12/26 01:56:17;;;;;;;0.93;0.60;;;2.80;92.30;;;;;;5115137;28;20040;-72
2020/12/26 01:58:43;;;;;;;1.40;0.90;;;2.90;92.40;;;;;;5114967;28;20036;-72
2020/12/26 02:01:10;;;;;;;1.02;0.77;;;3.00;92.40;;;;;;5115306;28;20050;-72
2020/12/26 02:03:37;;;;;;;1.52;0.80;;;2.90;92.30;;;;;;5096611;28;20040;-73
2020/12/26 02:06:03;;;;;;;0.98;0.77;;;3.00;92.30;;;;;;5115098;28;20161;-72
2020/12/26 02:08:29;;;;;;;1.45;1.10;;;3.00;92.30;;;;;;5097320;28;20082;-73
2020/12/26 02:10:55;;;;;;;1.92;1.00;;;3.00;92.30;;;;;;5114856;28;20067;-73
2020/12/26 02:13:21;;;;;;;2.22;0.90;;;3.10;92.30;;;;;;5096471;28;20100;-73
2020/12/26 02:16:05;;;;;;;1.55;1.00;;;3.10;92.30;;;;;;5114692;28;20439;-73
2020/12/26 02:18:32;;;;;;;1.35;0.80;;;3.20;92.30;;;;;;5114805;28;20096;-72
2020/12/26 02:21:00;;;;;;;1.48;0.90;;;3.20;92.30;;;;;;5114800;28;20036;-73
2020/12/26 02:23:27;;;;;;;1.55;0.85;;;3.20;92.20;;;;;;5114732;28;20422;-73
2020/12/26 02:25:56;;;;;;;1.38;0.93;;;3.20;92.20;;;;;;5114795;28;20101;-73
2020/12/26 02:28:23;;;;;;;1.58;1.00;;;3.40;92.20;;;;;;5114574;28;20075;-72
2020/12/26 02:30:48;;;;;;;1.17;0.90;;;3.40;92.20;;;;;;5114571;28;20048;-72
2020/12/26 02:33:15;;;;;;;3.17;0.90;;;3.40;92.10;;;;;;5114493;28;20114;-73
2020/12/26 02:35:44;;;;;;;1.08;0.90;;;3.40;92.10;;;;;;5114465;28;20508;-73
2020/12/26 02:38:10;;;;;;;1.38;0.85;;;3.40;92.10;;;;;;5115104;28;20067;-73
2020/12/26 02:40:36;;;;;;;1.63;0.90;;;3.40;92.10;;;;;;5096292;28;20036;-73
2020/12/26 02:43:01;;;;;;;0.80;0.68;;;3.40;92.10;;;;;;5114509;28;20039;-73
2020/12/26 02:45:27;;;;;;;1.08;0.73;;;3.40;92.10;;;;;;5115136;28;20349;-73
2020/12/26 02:47:53;;;;;;;0.65;0.63;;;3.40;92.20;;;;;;5096323;28;20039;-72
2020/12/26 02:50:19;;;;;;;1.50;0.80;;;3.50;92.50;;;;;;5114892;28;20505;-73
2020/12/26 02:52:45;;;;;;;0.77;0.50;;;3.50;92.20;;;;;;5114397;28;20075;-73
2020/12/26 02:55:12;;;;;;;0.60;0.50;;;3.50;92.20;;;;;;5095527;28;20039;-72
2020/12/26 02:57:37;;;;;;;0.90;0.63;;;3.50;92.20;;;;;;5114354;28;20038;-73
2020/12/26 03:00:04;;;;;;;1.20;0.70;;;3.50;92.30;;;;;;5096095;28;20035;-73
2020/12/26 03:02:29;;;;;;;1.10;0.90;;;3.50;92.20;;;;;;5114400;28;20040;-73
2020/12/26 03:04:55;;;;;;;1.75;0.80;;;3.40;92.20;;;;;;5114387;28;20135;-73
2020/12/26 03:07:21;;;;;;;1.92;0.82;;;3.50;92.30;;;;;;5114708;28;20046;-73
2020/12/26 03:09:46;;;;;;;0.93;0.70;;;3.50;92.30;;;;;;5114262;28;20043;-73
2020/12/26 03:12:12;;;;;;;1.13;0.57;;;3.50;92.30;;;;;;5095824;28;20043;-73
2020/12/26 03:14:38;;;;;;;0.77;0.70;;;3.40;92.30;;;;;;5095828;28;20133;-73
2020/12/26 03:17:03;;;;;;;2.03;0.70;;;3.50;92.30;;;;;;5113963;28;20066;-72
2020/12/26 03:19:29;;;;;;;1.77;0.90;;;3.50;92.30;;;;;;5113945;28;20051;-73
2020/12/26 03:21:55;;;;;;;1.40;0.77;;;3.40;92.30;;;;;;5113781;28;20047;-73
2020/12/26 03:24:20;;;;;;;1.42;0.90;;;3.40;92.30;;;;;;5113885;28;20071;-73
2020/12/26 03:26:46;;;;;;;0.73;0.70;;;3.40;92.30;;;;;;5113827;28;20401;-73
2020/12/26 03:29:12;;;;;;;1.50;0.90;;;3.40;92.40;;;;;;5113712;28;20126;-73
2020/12/26 03:31:37;;;;;;;1.98;0.90;;;3.40;92.40;;;;;;5113677;28;20050;-73
2020/12/26 03:34:03;;;;;;;1.50;0.80;;;3.30;92.40;;;;;;5095507;28;20074;-72
2020/12/26 03:36:29;;;;;;;1.02;0.80;;;3.40;92.40;;;;;;5095683;28;20493;-73
2020/12/26 03:38:54;;;;;;;0.93;0.70;;;3.30;92.40;;;;;;5113676;28;20028;-73
2020/12/26 03:41:20;;;;;;;0.63;0.63;;;3.30;92.50;;;;;;5113292;28;20039;-73
2020/12/26 03:43:45;;;;;;;0.73;0.73;;;3.20;92.50;;;;;;5113610;28;20042;-73
2020/12/26 03:46:11;;;;;;;1.20;0.77;;;3.20;92.50;;;;;;5113606;28;20485;-73
2020/12/26 03:48:37;;;;;;;0.82;0.82;;;3.20;92.50;;;;;;5113214;28;20047;-73
2020/12/26 03:51:03;;;;;;;1.80;1.08;;;3.20;92.50;;;;;;5113511;28;20038;-73
2020/12/26 03:53:28;;;;;;;2.95;1.20;;;3.20;92.50;;;;;;5094892;28;20138;-74
2020/12/26 03:55:54;;;;;;;1.15;0.70;;;3.20;92.50;;;;;;5113448;28;20075;-73
2020/12/26 03:58:20;;;;;;;1.17;0.95;;;3.20;92.50;;;;;;5095559;28;20092;-73
2020/12/26 04:00:45;;;;;;;1.10;0.75;;;3.20;92.50;;;;;;5113238;28;20059;-72
2020/12/26 04:03:11;;;;;;;1.20;0.77;;;3.20;92.50;;;;;;5113770;28;20089;-72
2020/12/26 04:05:37;;;;;;;0.55;0.55;;;3.10;92.50;;;;;;5113030;28;20066;-72
2020/12/26 04:08:02;;;;;;;0.80;0.57;;;3.10;92.50;;;;;;5095401;28;20089;-73
2020/12/26 04:10:28;;;;;;;1.92;0.60;;;3.20;92.60;;;;;;5113095;28;20051;-73
2020/12/26 04:12:54;;;;;;;2.17;0.90;;;3.10;92.50;;;;;;5113051;28;20485;-73
2020/12/26 04:15:19;;;;;;;1.38;0.80;;;3.10;92.60;;;;;;5113252;28;20040;-72
2020/12/26 04:17:45;;;;;;;1.13;0.88;;;3.10;92.60;;;;;;5113341;28;20039;-73
2020/12/26 04:20:11;;;;;;;2.15;1.00;;;3.20;92.60;;;;;;5112680;28;20061;-73
2020/12/26 04:22:37;;;;;;;1.02;0.82;;;3.10;92.60;;;;;;5112806;28;20035;-73
2020/12/26 04:25:03;;;;;;;1.65;0.90;;;3.10;92.60;;;;;;5095080;28;20141;-73
2020/12/26 04:27:28;;;;;;;1.60;0.93;;;3.10;92.60;;;;;;5113171;28;20401;-73
2020/12/26 04:29:54;;;;;;;2.53;0.88;;;3.10;92.60;;;;;;5112829;28;20039;-73
2020/12/26 04:32:20;;;;;;;1.63;0.80;;;3.00;92.60;;;;;;5112806;28;20110;-73
2020/12/26 04:34:46;;;;;;;1.33;0.80;;;3.00;92.60;;;;;;5113221;28;20149;-73
2020/12/26 04:37:11;;;;;;;1.30;0.93;;;3.00;92.60;;;;;;5094590;28;20042;-73
2020/12/26 04:39:37;;;;;;;1.33;0.80;;;3.10;92.70;;;;;;5094371;28;20485;-73
2020/12/26 04:42:04;;;;;;;1.88;0.90;;;3.00;92.70;;;;;;5112653;28;20035;-72
2020/12/26 04:44:30;;;;;;;1.67;0.88;;;3.00;92.70;;;;;;5113160;28;20048;-73
2020/12/26 04:47:05;;;;;;;1.33;0.90;;;3.00;92.70;;;;;;5113165;28;20107;-73
2020/12/26 04:49:31;;;;;;;0.95;0.70;;;3.00;92.70;;;;;;5113096;28;20425;-73
2020/12/26 04:52:01;;;;;;;1.02;0.60;;;2.90;92.70;;;;;;5094512;28;20039;-72
2020/12/26 04:54:31;;;;;;;1.92;0.73;;;3.00;92.70;;;;;;5112400;28;20040;-73
2020/12/26 04:56:57;;;;;;;0.68;0.60;;;3.00;92.70;;;;;;5112386;28;20091;-73
2020/12/26 04:59:24;;;;;;;1.42;0.85;;;3.00;92.70;;;;;;5112558;28;20028;-73
2020/12/26 05:01:51;;;;;;;0.90;0.70;;;2.90;92.70;;;;;;5094321;28;20040;-73
2020/12/26 05:04:17;;;;;;;1.55;0.63;;;2.90;92.70;;;;;;5112550;28;20131;-73
2020/12/26 05:06:49;;;;;;;1.33;0.75;;;2.80;92.80;;;;;;5094174;28;20424;-73
2020/12/26 05:09:17;;;;;;;1.83;0.90;;;2.80;92.80;;;;;;5095127;28;20418;-73
2020/12/26 05:11:55;;;;;;;1.35;0.82;;;2.80;92.80;;;;;;5112458;28;20043;-73
2020/12/26 05:14:21;;;;;;;2.15;0.98;;;2.80;92.80;;;;;;5112641;28;20054;-73
2020/12/26 05:16:47;;;;;;;0.98;0.70;;;2.80;92.80;;;;;;5094204;28;20043;-73
2020/12/26 05:19:13;;;;;;;0.60;0.50;;;2.80;92.80;;;;;;5116611;28;20132;-73
2020/12/26 05:21:39;;;;;;;1.25;0.73;;;2.70;92.80;;;;;;5116259;28;20123;-73
2020/12/26 05:24:09;;;;;;;0.98;0.60;;;2.80;92.80;;;;;;5115799;28;20119;-73
2020/12/26 05:26:44;;;;;;;1.20;0.70;;;2.80;92.80;;;;;;5116000;28;20081;-73
2020/12/26 05:29:11;;;;;;;1.27;0.80;;;2.70;92.90;;;;;;5115987;28;20099;-72
2020/12/26 05:31:44;;;;;;;1.05;0.75;;;2.80;92.90;;;;;;5115698;28;20043;-73
2020/12/26 05:34:11;;;;;;;0.95;0.70;;;2.80;92.90;;;;;;5116004;28;20075;-72
2020/12/26 05:36:37;;;;;;;1.13;0.63;;;2.80;92.80;;;;;;5116229;28;20036;-73
2020/12/26 05:39:04;;;;;;;1.83;1.00;;;2.80;92.80;;;;;;5097819;28;20080;-72
2020/12/26 05:41:30;;;;;;;1.55;1.00;;;2.80;93.10;;;;;;5115895;28;20084;-72
2020/12/26 05:43:57;;;;;;;1.13;0.85;;;2.80;92.80;;;;;;5116135;28;20054;-73
2020/12/26 05:46:23;;;;;;;1.48;0.85;;;2.80;92.90;;;;;;5115705;28;20043;-73
2020/12/26 05:48:49;;;;;;;1.10;0.65;;;2.80;92.80;;;;;;5115876;28;20031;-73
2020/12/26 05:51:25;;;;;;;1.33;0.85;;;2.80;92.80;;;;;;5115871;28;20036;-73
2020/12/26 05:53:55;;;;;;;0.95;0.60;;;2.80;92.80;;;;;;5115900;28;20032;-74
2020/12/26 05:56:21;;;;;;;1.55;0.90;;;2.90;92.80;;;;;;5115490;28;20122;-73
2020/12/26 05:58:48;;;;;;;0.90;0.68;;;2.90;92.80;;;;;;5097032;28;20043;-73
2020/12/26 06:01:20;;;;;;;0.90;0.73;;;2.80;92.80;;;;;;5096951;28;20557;-72
2020/12/26 06:03:47;;;;;;;1.55;0.80;;;2.90;92.80;;;;;;5115763;28;20404;-73
2020/12/26 06:06:15;;;;;;;0.82;0.70;;;2.90;92.80;;;;;;5115024;28;20046;-73
2020/12/26 06:08:41;;;;;;;1.25;0.95;;;2.90;92.80;;;;;;5115146;28;20466;-72
2020/12/26 06:11:08;;;;;;;2.05;1.00;;;2.90;92.90;;;;;;5096761;28;20558;-72
2020/12/26 06:13:35;;;;;;;1.25;0.90;;;2.90;92.80;;;;;;5096777;28;20507;-72
2020/12/26 06:16:11;;;;;;;1.27;0.90;;;3.00;92.80;;;;;;5115191;28;20043;-73
2020/12/26 06:18:41;;;;;;;1.25;0.88;;;3.00;92.80;;;;;;5097484;28;20556;-73
2020/12/26 06:21:08;;;;;;;1.45;0.90;;;2.90;92.80;;;;;;5096674;28;20459;-73
2020/12/26 06:23:38;;;;;;;1.92;1.23;;;3.00;92.80;;;;;;5096904;28;20043;-72
2020/12/26 06:26:04;;;;;;;4.60;1.10;;;3.00;92.80;;;;;;5114770;28;20071;-73
2020/12/26 06:28:32;;;;;;;1.73;1.20;;;2.90;92.70;;;;;;5114607;28;20047;-72
2020/12/26 06:31:05;;;;;;;1.23;1.00;;;3.00;92.80;;;;;;5114925;28;20456;-73
2020/12/26 06:33:40;;;;;;;1.58;0.90;;;2.90;92.80;;;;;;5115285;28;20043;-72
2020/12/26 06:36:07;;;;;;;1.65;1.10;;;3.00;92.80;;;;;;5079317;28;20398;-73
2020/12/26 06:38:34;;;;;;;2.33;1.30;;;2.90;92.80;;;;;;5114739;28;20032;-74
2020/12/26 06:41:07;;;;;;;1.85;1.20;;;3.00;92.80;;;;;;5115256;28;20122;-72
2020/12/26 06:43:43;;;;;;;4.72;1.50;;;3.00;92.80;;;;;;5114820;28;20379;-72
2020/12/26 06:46:35;;;;;;;3.03;1.52;;;3.00;92.80;;;;;;5114639;28;20556;-72
2020/12/26 06:49:01;;;;;;;3.22;1.40;;;3.10;92.80;;;;;;5114715;28;20042;-73
2020/12/26 06:51:29;;;;;;;2.70;1.50;;;3.00;92.70;;;;;;5096327;28;20043;-72
2020/12/26 06:53:58;;;;;;;2.90;1.38;;;3.10;92.70;;;;;;5096345;28;20044;-73
2020/12/26 06:56:45;;;;;;;3.05;1.30;;;3.10;92.70;;;;;;5115048;28;20040;-73
2020/12/26 06:59:12;;;;;;;3.85;1.95;;;3.00;92.70;;;;;;5114447;28;20489;-73
2020/12/26 07:01:41;;;;;;;2.50;1.52;;;3.10;92.70;;;;;;5114800;28;20123;-73
2020/12/26 07:04:16;;;;;;;4.75;1.77;;;3.10;92.70;;;;;;5114972;28;20358;-73
2020/12/26 07:06:46;;;;;;;4.78;1.80;;;3.10;92.70;;;;;;5096487;28;20043;-73
2020/12/26 07:09:14;;;;;;;4.22;2.15;;;3.20;92.70;;;;;;5114555;28;20111;-72
2020/12/26 07:11:52;;;;;;;3.13;2.10;;;3.20;92.70;;;;;;5114201;28;20072;-74
2020/12/26 07:14:33;;;;;;;3.63;2.20;;;3.10;92.70;;;;;;5114173;28;20032;-73
2020/12/26 07:17:02;;;;;;;3.88;2.10;;;3.20;92.70;;;;;;5114091;28;20118;-73
2020/12/26 07:19:42;;;;;;;3.08;2.03;;;3.10;92.60;;;;;;5114040;28;20397;-73
2020/12/26 07:22:20;;;;;;;4.25;2.30;;;3.20;92.60;;;;;;5114086;28;20028;-72
2020/12/26 07:24:47;;;;;;;3.17;1.90;;;3.10;92.60;;;;;;5095695;28;20047;-73
2020/12/26 07:27:17;;;;;;;3.92;2.13;;;3.20;92.70;;;;;;5095631;28;20104;-73
2020/12/26 07:29:59;;;;;;;4.35;1.95;;;3.20;92.70;;;;;;5114108;28;20071;-73
2020/12/26 07:32:42;;;;;;;3.60;2.03;;;3.20;92.70;;;;;;5113778;28;20067;-73
2020/12/26 07:35:26;;;;;;;4.55;2.38;;;3.10;92.70;;;;;;5114133;28;20047;-72
2020/12/26 07:37:58;;;;;;;4.45;2.45;;;3.20;92.70;;;;;;5114001;28;20039;-73
2020/12/26 07:40:27;;;;;;;2.78;1.85;;;3.10;92.70;;;;;;5113575;28;20043;-73
2020/12/26 07:42:54;;;;;;;4.30;2.35;;;3.10;92.70;;;;;;5095455;28;20394;-73
2020/12/26 07:45:21;;;;;;;3.70;2.05;;;3.00;92.70;;;;;;5113893;28;20032;-73
2020/12/26 07:47:50;;;;;;;4.32;2.25;;;3.10;92.70;;;;;;5113752;28;20039;-73
2020/12/26 07:50:18;;;;;;;4.70;2.20;;;3.10;92.70;;;;;;5113552;28;20508;-73
2020/12/26 07:52:46;;;;;;;3.65;1.90;;;3.00;92.70;;;;;;5113756;28;20043;-73
2020/12/26 07:55:12;;;;;;;3.53;1.75;;;3.10;92.80;;;;;;5113869;28;20092;-73
2020/12/26 07:57:39;;;;;;;3.97;1.52;;;3.10;92.80;;;;;;5113436;28;20065;-72
2020/12/26 08:00:04;;;;;;;3.63;1.80;;;3.10;92.80;;;;;;5113161;28;20454;-73
2020/12/26 08:02:30;;;;;;;3.00;1.65;;;3.10;92.80;;;;;;5095058;28;20127;-72
2020/12/26 08:04:56;;;;;;;4.05;2.10;;;3.10;92.80;;;;;;5113274;28;20039;-72
2020/12/26 08:07:22;;;;;;;4.72;1.73;;;3.10;92.80;;;;;;5113303;28;20055;-73
2020/12/26 08:09:49;;;;;;;4.13;2.13;;;3.10;92.80;;;;;;5113482;28;20093;-72
2020/12/26 08:12:15;;;;;;;3.83;2.00;;;3.10;92.70;;;;;;5113435;28;20119;-73
2020/12/26 08:14:41;;;;;;;3.92;1.67;;;3.10;92.70;;;;;;5113383;28;20127;-73
2020/12/26 08:17:07;;;;;;;3.80;1.80;;;3.20;92.70;;;;;;5112924;28;20497;-72
2020/12/26 08:19:34;;;;;;;3.55;1.90;;;3.10;92.70;;;;;;5112844;28;20032;-73
2020/12/26 08:22:02;;;;;;;3.42;1.88;;;3.20;92.80;;;;;;5094781;28;20061;-73
2020/12/26 08:24:28;;;;;;;4.55;1.90;;;3.30;92.80;;;;;;5094750;28;20054;-72
2020/12/26 08:26:55;;;;;;;2.35;1.67;;;3.30;93.00;;;;;;5113099;28;20035;-73
2020/12/26 08:29:29;;;;;;;3.00;1.77;;;3.30;92.70;;;;;;5113203;28;20038;-73
2020/12/26 08:32:02;;;;;;;3.20;1.77;;;3.40;92.70;;;;;;5112845;28;20035;-73
2020/12/26 08:34:45;;;;;;;2.88;1.35;;;3.40;92.70;;;;;;5094538;28;20040;-73
2020/12/26 08:37:19;;;;;;;2.83;1.70;;;3.40;92.70;;;;;;5113278;28;20031;-73
2020/12/26 08:39:45;;;;;;;3.75;1.90;;;3.40;92.60;;;;;;5112852;28;20035;-73
2020/12/26 08:42:19;;;;;;;3.25;1.85;;;3.40;92.60;;;;;;5112875;28;20076;-73
2020/12/26 08:44:45;;;;;;;3.75;2.17;;;3.40;92.60;;;;;;5078388;28;20485;-72
2020/12/26 08:47:11;;;;;;;4.82;2.35;;;3.50;92.60;;;;;;5113091;28;20394;-73
2020/12/26 08:49:44;;;;;;;3.72;1.70;;;3.50;92.50;;;;;;5112567;28;20122;-73
2020/12/26 08:52:11;;;;;;;3.53;1.60;;;3.50;92.50;;;;;;5112427;28;20046;-73
2020/12/26 08:54:37;;;;;;;3.47;1.85;;;3.50;92.50;;;;;;5094425;28;20062;-73
2020/12/26 08:57:18;;;;;;;3.15;2.03;;;3.60;92.50;;;;;;5112620;28;20032;-73
2020/12/26 08:59:44;;;;;;;;;;;3.70;92.50;;;;;;5094820;28;20043;-72
2020/12/26 09:02:11;;;;;;;2.65;1.60;;;3.60;92.50;;;;;;5094111;28;19920;-73
2020/12/26 09:04:37;;;;;;;4.40;2.10;;;3.60;92.40;;;;;;5112623;28;20048;-73
2020/12/26 09:07:19;;;;;;;3.10;1.60;;;3.70;92.40;;;;;;5112458;28;20047;-74
2020/12/26 09:09:45;;;;;;;3.40;1.90;;;3.70;92.40;;;;;;5112764;28;20045;-73
2020/12/26 09:12:15;;;;;;;3.03;1.90;;;3.70;92.40;;;;;;5112400;28;20055;-73
2020/12/26 09:14:40;;;;;;;3.15;1.80;;;3.70;92.40;;;;;;5112389;28;20044;-73
2020/12/26 09:17:08;;;;;;;3.15;1.80;;;3.70;92.40;;;;;;5112392;28;20088;-73
2020/12/26 09:19:51;;;;;;;3.38;1.58;;;3.70;92.40;;;;;;5094095;28;20401;-74
2020/12/26 09:22:16;;;;;;;3.67;1.73;;;3.70;92.50;;;;;;5093980;28;20043;-72
2020/12/26 09:24:43;;;;;;;2.67;1.40;;;3.70;92.50;;;;;;5112805;28;20401;-75
2020/12/26 09:27:21;;;;;;;3.42;1.70;;;3.70;92.50;;;;;;5112093;28;20039;-72
2020/12/26 09:29:51;;;;;;;3.95;1.85;;;3.80;92.50;;;;;;5112751;28;20039;-72
2020/12/26 09:32:17;;;;;;;4.03;2.10;;;3.70;92.50;;;;;;5112070;28;20047;-73
2020/12/26 09:34:43;;;;;;;3.88;2.10;;;3.80;92.40;;;;;;5112253;28;20044;-72
2020/12/26 09:37:10;;;;;;;3.45;1.92;;;3.90;92.40;;;;;;5112097;28;20497;-72
2020/12/26 09:39:37;;;;;;;3.30;1.80;;;4.00;92.40;;;;;;5112577;28;20027;-73
2020/12/26 09:42:04;;;;;;;3.13;1.70;;;4.00;92.30;;;;;;5094646;28;20040;-73
2020/12/26 09:44:30;;;;;;;2.95;1.75;;;4.10;92.30;;;;;;5112091;28;20036;-73
2020/12/26 09:46:58;;;;;;;3.63;1.90;;;4.10;92.20;;;;;;5112421;28;20404;-72
2020/12/26 09:49:24;;;;;;;3.78;2.10;;;4.20;92.20;;;;;;5112007;28;20040;-73
2020/12/26 09:51:49;;;;;;;2.85;1.52;;;4.30;92.20;;;;;;5112230;28;20404;-75
2020/12/26 09:54:15;;;;;;;2.25;1.40;;;4.30;92.10;;;;;;5112525;28;20051;-73
2020/12/26 09:56:41;;;;;;;2.78;1.70;;;4.30;92.10;;;;;;5112277;28;20043;-75
2020/12/26 09:59:06;;;;;;;3.72;1.70;;;4.40;92.10;;;;;;5094286;28;20119;-73
2020/12/26 10:01:34;;;;;;;2.45;1.42;;;4.40;92.10;;;;;;5111947;28;20485;-72
2020/12/26 10:04:00;;;;;;;2.13;1.30;;;4.40;92.00;;;;;;5112521;28;20057;-73
2020/12/26 10:06:26;;;;;;;2.45;1.33;;;4.40;92.00;;;;;;5115220;28;20040;-73
2020/12/26 10:08:52;;;;;;;3.08;1.60;;;4.40;92.00;;;;;;5115828;28;20043;-73
2020/12/26 10:11:19;;;;;;;2.75;1.50;;;4.40;92.00;;;;;;5115778;28;20373;-73
2020/12/26 10:13:46;;;;;;;3.20;1.65;;;4.40;92.10;;;;;;5115850;28;20027;-75
2020/12/26 10:16:17;;;;;;;2.88;1.45;;;4.40;92.00;;;;;;5115772;28;20044;-73
2020/12/26 10:18:43;;;;;;;2.08;1.30;;;4.40;92.00;;;;;;5115797;28;20027;-73
2020/12/26 10:21:09;;;;;;;3.28;1.42;;;4.50;92.00;;;;;;5115950;28;20042;-73
2020/12/26 10:23:34;;;;;;;2.10;1.45;;;4.40;92.00;;;;;;5115650;28;20036;-73
2020/12/26 10:26:07;;;;;;;2.08;1.45;;;4.40;92.00;;;;;;5115564;28;20047;-73
2020/12/26 10:28:34;;;;;;;2.50;1.58;;;4.40;92.00;;;;;;5114940;28;20078;-75
2020/12/26 10:31:01;;;;;;;3.25;1.80;;;4.40;92.00;;;;;;5097345;28;20092;-73
2020/12/26 10:33:27;;;;;;;2.67;1.50;;;4.40;92.00;;;;;;5115060;28;20039;-73
2020/12/26 10:35:53;;;;;;;2.72;1.60;;;4.40;92.00;;;;;;5115317;28;20043;-73
2020/12/26 10:38:18;;;;;;;2.83;1.40;;;4.40;92.00;;;;;;5115342;28;20052;-73
2020/12/26 10:40:44;;;;;;;2.25;1.10;;;4.30;92.00;;;;;;5096561;28;20042;-73
2020/12/26 10:43:10;;;;;;;2.80;1.27;;;4.40;92.10;;;;;;5115437;28;20108;-73
2020/12/26 10:45:36;;;;;;;4.28;1.50;;;4.40;92.00;;;;;;5115009;28;20035;-73
2020/12/26 10:48:02;;;;;;;2.38;1.30;;;4.40;92.00;;;;;;5114887;28;20100;-73
2020/12/26 10:50:28;;;;;;;2.38;1.25;;;4.50;92.00;;;;;;5114724;28;20043;-72
2020/12/26 10:52:53;;;;;;;2.55;1.20;;;4.50;92.00;;;;;;5114712;28;20046;-73
2020/12/26 10:55:19;;;;;;;1.98;1.10;;;4.60;91.90;;;;;;5114474;28;20035;-73
2020/12/26 10:57:45;;;;;;;1.58;1.13;;;4.60;91.90;;;;;;5096501;28;20493;-73
2020/12/26 11:00:13;;;;;;;2.05;1.10;;;4.60;91.90;;;;;;5114568;28;20035;-73
2020/12/26 11:02:39;;;;;;;1.58;1.05;;;4.60;91.80;;;;;;5096619;28;20441;-73
2020/12/26 11:05:05;;;;;;;1.85;1.25;;;4.60;91.80;;;;;;5114876;28;20071;-73
2020/12/26 11:07:33;;;;;;;3.47;1.23;;;4.70;91.80;;;;;;5096676;28;20105;-73
2020/12/26 11:09:59;;;;;;;2.17;1.05;;;4.70;91.80;;;;;;5114226;28;20044;-73
2020/12/26 11:12:24;;;;;;;3.10;1.27;;;4.70;91.70;;;;;;5114892;28;20035;-73
2020/12/26 11:14:50;;;;;;;4.55;1.40;;;4.70;91.70;;;;;;5114161;28;20444;-73
2020/12/26 11:17:16;;;;;;;1.77;1.20;;;4.70;91.70;;;;;;5114244;28;20032;-73
2020/12/26 11:19:41;;;;;;;2.60;1.30;;;4.70;91.70;;;;;;5114647;28;20036;-73
2020/12/26 11:22:07;;;;;;;2.45;1.23;;;4.70;91.80;;;;;;5114538;28;20477;-73
2020/12/26 11:24:33;;;;;;;2.95;0.90;;;4.80;91.80;;;;;;5114260;28;20040;-73
2020/12/26 11:26:59;;;;;;;1.73;1.00;;;4.80;91.70;;;;;;5114152;28;20119;-73
2020/12/26 11:29:25;;;;;;;2.20;1.17;;;4.80;91.70;;;;;;5114545;28;20035;-73
2020/12/26 11:31:51;;;;;;;2.10;0.93;;;4.80;91.70;;;;;;5113936;28;20036;-73
2020/12/26 11:34:17;;;;;;;2.40;1.20;;;4.80;91.60;;;;;;5113819;28;20092;-73
2020/12/26 11:36:43;;;;;;;2.38;1.10;;;4.80;91.60;;;;;;5114577;28;20126;-74
2020/12/26 11:39:10;;;;;;;4.13;1.45;;;4.80;91.60;;;;;;5114531;28;20495;-73
2020/12/26 11:41:36;;;;;;;2.13;1.08;;;4.80;91.60;;;;;;5113990;28;20397;-73
2020/12/26 11:44:03;;;;;;;3.53;1.40;;;4.80;91.60;;;;;;5095890;28;20049;-73
2020/12/26 11:46:29;;;;;;;2.03;1.05;;;4.80;91.60;;;;;;5114272;28;20062;-74
2020/12/26 11:48:55;;;;;;;2.05;1.15;;;4.80;91.60;;;;;;5113617;28;20067;-73
2020/12/26 11:51:22;;;;;;;2.50;1.10;;;4.80;91.50;;;;;;5114249;28;20043;-73
2020/12/26 11:53:48;;;;;;;1.88;1.10;;;4.80;91.50;;;;;;5114190;28;20043;-73
2020/12/26 11:56:15;;;;;;;2.38;1.10;;;4.90;91.60;;;;;;5095876;28;20043;-73
2020/12/26 11:58:43;;;;;;;1.52;1.10;;;5.00;91.60;;;;;;5114204;28;20118;-74
2020/12/26 12:01:09;;;;;;;2.03;1.08;;;4.90;91.50;;;;;;5113467;28;20071;-73
2020/12/26 12:03:36;;;;;;;1.25;0.90;;;4.90;91.50;;;;;;5113760;28;20093;-73
2020/12/26 12:06:03;;;;;;;1.77;1.00;;;4.90;91.50;;;;;;5095522;28;20039;-73
2020/12/26 12:08:29;;;;;;;2.20;0.93;;;5.00;91.50;;;;;;5113365;28;20550;-73
2020/12/26 12:10:55;;;;;;;1.92;1.02;;;5.00;91.40;;;;;;5113506;28;20039;-73
2020/12/26 12:13:20;;;;;;;1.90;1.15;;;5.00;91.40;;;;;;5113437;28;20078;-73
2020/12/26 12:15:46;;;;;;;2.17;1.17;;;5.00;91.40;;;;;;5113323;28;20044;-73
2020/12/26 12:18:12;;;;;;;3.88;1.33;;;5.00;91.40;;;;;;5113316;28;20040;-73
2020/12/26 12:20:38;;;;;;;2.15;1.10;;;5.10;91.40;;;;;;5113141;28;20040;-74
2020/12/26 12:23:04;;;;;;;2.58;1.30;;;5.00;91.30;;;;;;5113147;28;20122;-73
2020/12/26 12:25:30;;;;;;;2.78;1.17;;;5.00;91.30;;;;;;5113086;28;20535;-74
2020/12/26 12:27:56;;;;;;;3.10;1.30;;;5.00;91.30;;;;;;5112144;28;20503;-74
2020/12/26 12:30:24;;;;;;;1.63;1.10;;;5.10;91.30;;;;;;5113020;28;20039;-73
2020/12/26 12:32:49;;;;;;;2.45;1.13;;;5.10;91.20;;;;;;5095141;28;20044;-74
2020/12/26 12:35:16;;;;;;;2.88;1.30;;;5.20;91.20;;;;;;5113098;28;20047;-74
2020/12/26 12:37:49;;;;;;;1.77;1.20;;;5.20;91.20;;;;;;5113455;28;20036;-73
2020/12/26 12:40:15;;;;;;;2.35;1.25;;;5.20;91.10;;;;;;5112885;28;20081;-73
2020/12/26 12:42:41;;;;;;;4.70;1.20;;;5.30;91.10;;;;;;5112782;28;20070;-73
2020/12/26 12:45:08;;;;;;;3.25;1.60;;;5.30;91.10;;;;;;5112739;28;20047;-73
2020/12/26 12:47:34;;;;;;;4.35;1.33;;;5.30;91.00;;;;;;5113428;28;20130;-73
2020/12/26 12:49:59;;;;;;;2.10;1.15;;;5.30;91.00;;;;;;5112657;28;20031;-74
2020/12/26 12:52:25;;;;;;;1.60;1.17;;;5.30;90.90;;;;;;5112602;28;20048;-73
2020/12/26 12:54:51;;;;;;;1.92;1.08;;;5.40;90.90;;;;;;5112940;28;20036;-74
2020/12/26 12:57:16;;;;;;;2.60;1.30;;;5.40;90.90;;;;;;5113015;28;20493;-73
2020/12/26 12:59:43;;;;;;;2.83;1.30;;;5.40;90.90;;;;;;5094614;28;20039;-73